createdAt,value
2022-08-04T00:01:08.697Z,9.45
2022-08-04T00:04:03.710Z,7.82
2022-08-04T00:07:03.255Z,11.68
2022-08-04T00:10:06.605Z,10.02
2022-08-04T00:12:56.333Z,10.68
2022-08-04T00:15:44.429Z,6.63
2022-08-04T00:18:41.632Z,13.07
2022-08-04T00:21:28.478Z,7.13
2022-08-04T00:24:17.370Z,9.18
2022-08-04T00:27:04.422Z,7.45
2022-08-04T00:29:58.253Z,7.57
2022-08-04T00:32:45.683Z,8.60
2022-08-04T00:35:36.446Z,9.30
2022-08-04T00:38:26.216Z,8.18
2022-08-04T00:41:23.690Z,8.07
2022-08-04T00:44:27.879Z,8.25
2022-08-04T00:47:31.353Z,8.85
2022-08-04T00:50:27.981Z,7.72
2022-08-04T00:53:36.908Z,8.63
2022-08-04T00:56:50.197Z,9.80
2022-08-04T01:00:08.935Z,7.30
2022-08-04T01:03:17.017Z,8.98
2022-08-04T01:06:21.838Z,8.20
2022-08-04T01:09:38.746Z,7.75
2022-08-04T01:12:51.507Z,8.60
2022-08-04T01:15:59.842Z,8.55
2022-08-04T01:19:01.993Z,15.02
2022-08-04T01:22:13.179Z,8.35
2022-08-04T01:25:44.540Z,8.57
2022-08-04T01:28:44.463Z,9.65
2022-08-04T01:31:51.272Z,8.32
2022-08-04T01:34:43.477Z,13.23
2022-08-04T01:37:41.313Z,8.32
2022-08-04T01:40:29.185Z,10.98
2022-08-04T01:43:16.419Z,9.55
2022-08-04T01:46:04.739Z,10.90
2022-08-04T01:48:54.647Z,9.77
2022-08-04T01:51:43.126Z,9.68
2022-08-04T01:54:33.056Z,8.70
2022-08-04T01:57:38.755Z,10.68
2022-08-04T02:00:28.711Z,10.82
2022-08-04T02:03:15.971Z,11.18
2022-08-04T02:06:31.917Z,8.10
2022-08-04T02:09:33.658Z,9.80
2022-08-04T02:13:01.820Z,9.55
2022-08-04T02:16:17.245Z,13.35
2022-08-04T02:19:36.193Z,16.83
2022-08-04T02:22:23.068Z,12.07
2022-08-04T02:25:11.644Z,12.40
2022-08-04T02:28:13.509Z,9.38
2022-08-04T02:31:13.017Z,14.10
2022-08-04T02:34:09.086Z,9.88
2022-08-04T02:36:56.015Z,12.27
2022-08-04T02:39:48.777Z,13.55
2022-08-04T02:42:37.280Z,11.35
2022-08-04T02:45:27.059Z,9.60
2022-08-04T02:48:31.099Z,10.25
2022-08-04T02:51:21.910Z,9.25
2022-08-04T02:54:11.781Z,10.38
2022-08-04T02:57:11.858Z,9.48
2022-08-04T03:00:16.824Z,9.85
2022-08-04T03:03:25.273Z,11.65
2022-08-04T03:06:21.829Z,13.05
2022-08-04T03:09:35.035Z,11.55
2022-08-04T03:12:58.842Z,11.35
2022-08-04T03:15:54.564Z,11.88
2022-08-04T03:19:31.883Z,11.20
2022-08-04T03:22:41.962Z,11.75
2022-08-04T03:26:04.752Z,11.00
2022-08-04T03:29:07.696Z,10.70
2022-08-04T03:32:16.014Z,10.00
2022-08-04T03:35:31.442Z,11.85
2022-08-04T03:38:32.075Z,11.90
2022-08-04T03:41:51.823Z,12.65
2022-08-04T03:45:03.484Z,11.25
2022-08-04T03:48:16.068Z,12.65
2022-08-04T03:51:48.167Z,11.60
2022-08-04T03:55:05.872Z,10.57
2022-08-04T03:58:16.826Z,11.77
2022-08-04T04:01:08.684Z,16.33
2022-08-04T04:04:04.672Z,12.35
2022-08-04T04:06:59.923Z,12.15
2022-08-04T04:10:08.728Z,11.57
2022-08-04T04:13:03.619Z,13.93
2022-08-04T04:16:14.786Z,11.18
2022-08-04T04:19:23.022Z,13.82
2022-08-04T04:22:13.301Z,12.45
2022-08-04T04:25:29.644Z,12.80
2022-08-04T04:28:44.340Z,12.60
2022-08-04T04:32:00.204Z,11.18
2022-08-04T04:34:57.991Z,12.00
2022-08-04T04:38:11.965Z,13.40
2022-08-04T04:41:14.670Z,13.70
2022-08-04T04:47:15.679Z,11.13
2022-08-04T04:50:12.693Z,11.05
2022-08-04T04:53:11.930Z,14.98
2022-08-04T04:56:55.670Z,12.27
2022-08-04T04:59:53.940Z,11.82
2022-08-04T05:02:44.329Z,14.63
2022-08-04T05:05:59.252Z,10.13
2022-08-04T05:09:05.227Z,11.10
2022-08-04T05:14:22.792Z,10.85
2022-08-04T05:15:29.101Z,9.57
2022-08-04T05:18:20.642Z,9.85
2022-08-04T05:21:29.953Z,10.75
2022-08-04T05:24:20.684Z,10.52
2022-08-04T05:27:12.808Z,16.27
2022-08-04T05:30:05.900Z,10.43
2022-08-04T05:33:09.324Z,11.55
2022-08-04T05:36:17.671Z,18.40
2022-08-04T05:39:23.520Z,18.25
2022-08-04T05:42:14.422Z,9.40
2022-08-04T05:45:02.837Z,23.05
2022-08-04T05:48:02.047Z,14.38
2022-08-04T05:51:19.053Z,12.20
2022-08-04T05:54:08.177Z,12.48
2022-08-04T05:57:03.281Z,13.27
2022-08-04T05:59:57.227Z,12.00
2022-08-04T06:02:45.253Z,11.65
2022-08-04T06:05:40.112Z,12.32
2022-08-04T06:08:39.260Z,12.43
2022-08-04T06:11:29.279Z,9.52
2022-08-04T06:14:17.501Z,12.70
2022-08-04T06:20:19.483Z,11.60
2022-08-04T06:23:14.283Z,10.77
2022-08-04T06:26:04.043Z,10.52
2022-08-04T06:29:03.388Z,9.82
2022-08-04T06:32:27.407Z,8.70
2022-08-04T06:35:09.398Z,11.18
2022-08-04T06:38:00.716Z,14.47
2022-08-04T06:40:52.409Z,8.32
2022-08-04T06:43:47.090Z,9.07
2022-08-04T06:46:35.969Z,8.02
2022-08-04T06:49:23.902Z,8.70
2022-08-04T06:52:17.792Z,7.82
2022-08-04T06:55:07.849Z,7.85
2022-08-04T06:58:00.928Z,10.10
2022-08-04T07:00:53.006Z,10.68
2022-08-04T07:03:43.325Z,7.93
2022-08-04T07:06:37.176Z,7.30
2022-08-04T07:09:26.389Z,10.07
2022-08-04T07:12:24.608Z,7.85
2022-08-04T07:15:23.703Z,7.60
2022-08-04T07:18:20.613Z,9.07
2022-08-04T07:21:12.221Z,10.90
2022-08-04T07:24:48.366Z,7.75
2022-08-04T07:27:49.406Z,7.90
2022-08-04T07:30:41.053Z,9.98
2022-08-04T07:33:28.408Z,7.70
2022-08-04T07:36:17.330Z,8.10
2022-08-04T07:39:05.561Z,8.50
2022-08-04T07:41:57.754Z,8.43
2022-08-04T07:44:47.332Z,8.48
2022-08-04T07:47:35.097Z,8.38
2022-08-04T07:50:26.072Z,8.25
2022-08-04T07:53:54.578Z,10.82
2022-08-04T07:56:57.878Z,7.90
2022-08-04T07:59:49.880Z,9.00
2022-08-04T08:02:40.033Z,8.48
2022-08-04T08:05:28.935Z,9.00
2022-08-04T08:08:16.939Z,8.30
2022-08-04T08:11:07.766Z,9.52
2022-08-04T08:13:55.627Z,11.32
2022-08-04T08:16:45.444Z,10.07
2022-08-04T08:19:35.835Z,9.50
2022-08-04T08:25:12.486Z,7.43
2022-08-04T08:28:03.113Z,7.40
2022-08-04T08:30:52.936Z,7.45
2022-08-04T08:33:59.308Z,6.60
2022-08-04T08:36:59.652Z,8.70
2022-08-04T08:40:40.087Z,11.63
2022-08-04T08:44:04.829Z,9.57
2022-08-04T08:47:09.760Z,4.45
2022-08-04T08:50:41.747Z,5.22
2022-08-04T08:53:37.855Z,4.80
2022-08-04T08:56:53.633Z,5.03
2022-08-04T09:00:31.895Z,5.05
2022-08-04T09:03:56.533Z,6.65
2022-08-04T09:07:04.423Z,5.05
2022-08-04T09:10:18.069Z,4.45
2022-08-04T09:13:26.930Z,6.30
2022-08-04T09:16:26.099Z,6.80
2022-08-04T09:19:46.005Z,5.55
2022-08-04T09:22:52.673Z,6.25
2022-08-04T09:25:57.627Z,5.35
2022-08-04T09:29:27.959Z,4.70
2022-08-04T09:32:38.681Z,6.38
2022-08-04T09:35:49.464Z,5.40
2022-08-04T09:38:52.067Z,6.63
2022-08-04T09:42:20.008Z,5.65
2022-08-04T09:45:42.246Z,5.65
2022-08-04T09:48:59.343Z,4.25
2022-08-04T09:51:59.936Z,4.32
2022-08-04T09:55:23.038Z,4.65
2022-08-04T09:58:15.990Z,5.15
2022-08-04T10:01:14.014Z,5.30
2022-08-04T10:04:12.547Z,4.40
2022-08-04T10:07:27.583Z,4.57
2022-08-04T10:10:51.724Z,6.20
2022-08-04T10:14:11.045Z,9.35
2022-08-04T10:17:29.780Z,8.98
2022-08-04T10:20:58.152Z,5.30
2022-08-04T10:23:55.257Z,6.95
2022-08-04T10:27:02.261Z,7.07
2022-08-04T10:29:48.505Z,9.05
2022-08-04T10:32:54.097Z,6.70
2022-08-04T10:35:55.053Z,6.93
2022-08-04T10:39:43.088Z,5.68
2022-08-04T10:42:50.264Z,6.00
2022-08-04T10:45:48.969Z,6.82
2022-08-04T10:48:59.142Z,5.95
2022-08-04T10:51:57.343Z,5.57
2022-08-04T10:55:07.384Z,6.47
2022-08-04T10:58:03.555Z,5.97
2022-08-04T11:00:56.865Z,5.50
2022-08-04T11:03:52.850Z,7.93
2022-08-04T11:06:40.037Z,5.80
2022-08-04T11:09:30.984Z,5.47
2022-08-04T11:12:21.914Z,6.10
2022-08-04T11:15:39.626Z,7.22
2022-08-04T11:18:44.119Z,6.47
2022-08-04T11:21:42.788Z,7.97
2022-08-04T11:24:46.824Z,6.35
2022-08-04T11:28:15.997Z,6.60
2022-08-04T11:31:14.745Z,6.60
2022-08-04T11:34:33.349Z,7.63
2022-08-04T11:37:24.847Z,7.38
2022-08-04T11:40:16.738Z,6.60
2022-08-04T11:43:56.459Z,9.27
2022-08-04T11:46:51.313Z,6.50
2022-08-04T11:50:22.115Z,8.88
2022-08-04T11:53:17.529Z,9.75
2022-08-04T11:56:13.553Z,7.13
2022-08-04T11:59:20.331Z,8.52
2022-08-04T12:02:51.457Z,8.23
2022-08-04T12:06:09.524Z,6.97
2022-08-04T12:09:16.685Z,8.23
2022-08-04T12:12:38.581Z,7.10
2022-08-04T12:15:30.823Z,6.75
2022-08-04T12:18:46.478Z,8.32
2022-08-04T12:21:53.182Z,7.32
2022-08-04T12:29:19.292Z,8.93
2022-08-04T12:32:48.119Z,8.88
2022-08-04T12:36:10.837Z,6.68
2022-08-04T12:39:15.113Z,6.25
2022-08-04T12:42:25.134Z,7.00
2022-08-04T12:45:19.401Z,8.32
2022-08-04T12:48:06.603Z,6.60
2022-08-04T12:54:06.817Z,7.85
2022-08-04T12:56:57.674Z,7.50
2022-08-04T12:59:44.719Z,6.95
2022-08-04T13:02:34.516Z,8.02
2022-08-04T13:05:21.494Z,6.65
2022-08-04T13:08:11.089Z,7.05
2022-08-04T13:10:59.352Z,7.18
2022-08-04T13:13:46.763Z,7.47
2022-08-04T13:16:34.548Z,7.90
2022-08-04T13:19:23.100Z,7.28
2022-08-04T13:22:10.605Z,7.07
2022-08-04T13:28:11.324Z,9.07
2022-08-04T13:30:24.311Z,7.05
2022-08-04T13:31:01.535Z,7.97
2022-08-04T13:33:55.300Z,7.22
2022-08-04T13:36:43.320Z,7.10
2022-08-04T13:39:31.440Z,8.48
2022-08-04T13:42:24.726Z,7.07
2022-08-04T13:45:12.626Z,7.97
2022-08-04T13:48:15.157Z,7.03
2022-08-04T13:51:08.188Z,7.40
2022-08-04T13:54:00.256Z,7.47
2022-08-04T13:56:52.461Z,7.50
2022-08-04T13:59:40.073Z,7.82
2022-08-04T14:03:03.236Z,7.35
2022-08-04T14:06:19.068Z,6.65
2022-08-04T14:09:18.854Z,6.80
2022-08-04T14:12:39.013Z,7.47
2022-08-04T14:16:02.908Z,7.78
2022-08-04T14:19:02.829Z,7.32
2022-08-04T14:21:49.735Z,7.45
2022-08-04T14:24:36.236Z,7.53
2022-08-04T14:27:26.327Z,7.80
2022-08-04T14:30:25.755Z,7.13
2022-08-04T14:34:00.431Z,8.20
2022-08-04T14:36:22.472Z,10.07
2022-08-04T14:39:26.274Z,7.70
2022-08-04T14:42:17.359Z,6.78
2022-08-04T14:45:06.299Z,7.90
2022-08-04T14:47:56.837Z,7.90
2022-08-04T14:50:44.916Z,8.52
2022-08-04T14:53:31.946Z,6.93
2022-08-04T14:56:45.008Z,8.07
2022-08-04T15:00:01.589Z,8.00
2022-08-04T15:02:50.976Z,10.02
2022-08-04T15:05:55.236Z,8.93
2022-08-04T15:08:47.345Z,6.90
2022-08-04T15:11:37.833Z,7.30
2022-08-04T15:14:37.063Z,16.00
2022-08-04T15:17:29.076Z,8.68
2022-08-04T15:20:19.914Z,7.53
2022-08-04T15:23:10.953Z,7.43
2022-08-04T15:26:00.484Z,9.07
2022-08-04T15:29:01.240Z,7.72
2022-08-04T15:32:06.741Z,7.43
2022-08-04T15:35:03.354Z,6.90
2022-08-04T15:37:58.800Z,7.55
2022-08-04T15:41:05.395Z,9.93
2022-08-04T15:44:25.290Z,7.47
2022-08-04T15:47:16.290Z,7.72
2022-08-04T15:50:12.051Z,7.88
2022-08-04T15:53:10.731Z,7.37
2022-08-04T15:56:00.657Z,8.02
2022-08-04T15:58:52.818Z,9.00
2022-08-04T16:01:41.714Z,8.10
2022-08-04T16:04:49.838Z,7.75
2022-08-04T16:07:59.351Z,10.20
2022-08-04T16:10:58.157Z,8.63
2022-08-04T16:14:07.562Z,7.82
2022-08-04T16:17:01.249Z,7.85
2022-08-04T16:20:00.223Z,6.72
2022-08-04T16:25:48.696Z,7.57
2022-08-04T16:28:41.734Z,7.28
2022-08-04T16:31:28.436Z,7.75
2022-08-04T16:34:49.525Z,9.70
2022-08-04T16:37:34.820Z,9.45
2022-08-04T16:40:38.551Z,8.80
2022-08-04T16:43:35.085Z,7.60
2022-08-04T16:47:22.042Z,8.13
2022-08-04T16:50:03.440Z,7.57
2022-08-04T16:52:59.892Z,8.20
2022-08-04T16:55:51.847Z,6.50
2022-08-04T16:58:55.354Z,8.85
2022-08-04T17:01:54.080Z,7.90
2022-08-04T17:05:06.751Z,9.30
2022-08-04T17:08:27.247Z,7.47
2022-08-04T17:11:06.775Z,9.05
2022-08-04T17:14:03.552Z,8.65
2022-08-04T17:16:58.384Z,6.60
2022-08-04T17:19:52.796Z,7.65
2022-08-04T17:22:42.041Z,6.22
2022-08-04T17:25:51.474Z,6.35
2022-08-04T17:28:47.407Z,9.93
2022-08-04T17:31:38.381Z,6.43
2022-08-04T17:34:29.007Z,6.93
2022-08-04T17:37:38.848Z,6.25
2022-08-04T17:40:26.077Z,7.25
2022-08-04T17:44:03.180Z,8.55
2022-08-04T17:46:30.581Z,6.63
2022-08-04T17:49:17.050Z,8.30
2022-08-04T17:52:10.797Z,9.45
2022-08-04T17:55:07.094Z,7.03
2022-08-04T17:58:21.586Z,8.73
2022-08-04T18:01:24.111Z,8.48
2022-08-04T18:04:25.747Z,6.25
2022-08-04T18:08:34.566Z,7.45
2022-08-04T18:10:51.755Z,8.40
2022-08-04T18:13:47.624Z,11.45
2022-08-04T18:16:45.893Z,9.35
2022-08-04T18:19:31.863Z,8.43
2022-08-04T18:22:27.865Z,7.60
2022-08-04T18:25:22.043Z,8.18
2022-08-04T18:28:33.262Z,14.63
2022-08-04T18:31:33.568Z,7.32
2022-08-04T18:34:25.029Z,8.65
2022-08-04T18:37:32.217Z,10.10
2022-08-04T18:40:29.987Z,12.38
2022-08-04T18:43:30.446Z,8.75
2022-08-04T18:46:39.110Z,9.25
2022-08-04T18:50:31.768Z,10.07
2022-08-04T18:52:46.922Z,9.73
2022-08-04T18:55:56.788Z,9.45
2022-08-04T18:58:45.572Z,10.23
2022-08-04T19:02:16.640Z,7.20
2022-08-04T19:04:52.419Z,11.00
2022-08-04T19:08:11.416Z,8.70
2022-08-04T19:10:49.968Z,8.35
2022-08-04T19:13:46.490Z,11.15
2022-08-04T19:16:45.901Z,9.90
2022-08-04T19:19:47.926Z,13.18
2022-08-04T19:24:10.956Z,10.02
2022-08-04T19:26:01.711Z,10.50
2022-08-04T19:28:51.877Z,10.85
2022-08-04T19:31:42.038Z,9.73
2022-08-04T19:34:33.100Z,10.50
2022-08-04T19:38:01.068Z,10.90
2022-08-04T19:40:34.078Z,10.80
2022-08-04T19:43:20.888Z,9.27
2022-08-04T19:46:09.836Z,12.70
2022-08-04T19:49:00.357Z,15.82
2022-08-04T19:51:49.488Z,10.75
2022-08-04T19:54:36.567Z,10.82
2022-08-04T19:57:35.729Z,12.27
2022-08-04T20:00:33.110Z,12.00
2022-08-04T20:03:23.166Z,16.35
2022-08-04T20:09:29.640Z,12.43
2022-08-04T20:12:24.754Z,14.50
2022-08-04T20:15:14.922Z,11.10
2022-08-04T20:18:07.593Z,9.02
2022-08-04T20:21:19.462Z,10.88
2022-08-04T20:24:36.559Z,9.88
2022-08-04T20:27:25.662Z,11.70
2022-08-04T20:30:33.099Z,9.55
2022-08-04T20:33:21.683Z,11.93
2022-08-04T20:36:10.710Z,9.68
2022-08-04T20:38:57.776Z,8.95
2022-08-04T20:44:55.409Z,13.35
2022-08-04T20:47:45.673Z,8.32
2022-08-04T20:50:48.278Z,15.73
2022-08-04T20:53:52.667Z,9.32
2022-08-04T20:56:39.646Z,11.77
2022-08-04T20:59:39.553Z,10.40
2022-08-04T21:02:45.886Z,15.38
2022-08-04T21:05:33.070Z,12.18
2022-08-04T21:08:21.092Z,10.65
2022-08-04T21:11:17.256Z,10.88
2022-08-04T21:14:05.767Z,11.52
2022-08-04T21:16:55.487Z,9.05
2022-08-04T21:19:43.479Z,11.68
2022-08-04T21:22:35.354Z,9.90
2022-08-04T21:25:24.591Z,14.50
2022-08-04T21:28:11.461Z,14.57
2022-08-04T21:30:59.662Z,11.77
2022-08-04T21:33:52.247Z,19.33
2022-08-04T21:36:39.730Z,10.20
2022-08-04T21:39:32.630Z,13.85
2022-08-04T21:42:27.811Z,9.98
2022-08-04T21:45:19.486Z,10.73
2022-08-04T21:48:07.425Z,10.88
2022-08-04T21:50:54.690Z,12.15
2022-08-04T21:53:46.581Z,12.40
2022-08-04T21:56:36.079Z,11.30
2022-08-04T21:59:30.909Z,14.85
2022-08-04T22:02:17.013Z,12.20
2022-08-04T22:05:04.070Z,9.13
2022-08-04T22:07:54.427Z,9.68
2022-08-04T22:10:45.296Z,11.38
2022-08-04T22:13:52.630Z,13.63
2022-08-04T22:16:45.000Z,10.05
2022-08-04T22:19:54.638Z,10.80
2022-08-04T22:22:40.813Z,10.43
2022-08-04T22:25:31.261Z,10.93
2022-08-04T22:28:20.477Z,8.90
2022-08-04T22:31:23.173Z,9.88
2022-08-04T22:34:10.639Z,11.48
2022-08-04T22:37:12.599Z,10.02
2022-08-04T22:39:59.740Z,10.18
2022-08-04T22:42:46.763Z,8.65
2022-08-04T22:45:44.560Z,10.82
2022-08-04T22:48:33.808Z,11.60
2022-08-04T22:51:23.915Z,9.65
2022-08-04T22:54:14.515Z,11.55
2022-08-04T22:57:00.866Z,11.25
2022-08-04T23:02:48.492Z,11.27
2022-08-04T23:05:36.720Z,15.27
2022-08-04T23:08:23.283Z,10.73
2022-08-04T23:11:12.492Z,11.55
2022-08-04T23:14:00.138Z,11.52
2022-08-04T23:16:47.570Z,9.30
2022-08-04T23:19:34.289Z,12.15
2022-08-04T23:22:41.993Z,9.50
2022-08-04T23:25:33.120Z,14.10
2022-08-04T23:28:33.898Z,14.90
2022-08-04T23:31:41.677Z,10.48
2022-08-04T23:34:33.409Z,11.43
2022-08-04T23:37:21.216Z,10.82
2022-08-04T23:40:29.947Z,10.43
2022-08-04T23:43:23.174Z,12.40
2022-08-04T23:46:09.841Z,11.35
2022-08-04T23:48:57.177Z,10.05
2022-08-04T23:51:43.525Z,9.82
2022-08-04T23:54:30.615Z,13.60
2022-08-04T23:57:19.172Z,14.75
